createdAt,value
2017-10-22T00:00:04.131Z,99.90
2017-10-22T00:02:31.687Z,99.90
2017-10-22T00:04:59.200Z,99.90
2017-10-22T00:07:26.699Z,99.90
2017-10-22T00:09:54.264Z,99.90
2017-10-22T00:12:21.823Z,99.90
2017-10-22T00:14:49.715Z,99.90
2017-10-22T00:17:18.047Z,99.90
2017-10-22T00:19:45.555Z,99.90
2017-10-22T00:22:14.786Z,99.90
2017-10-22T00:24:42.325Z,99.90
2017-10-22T00:27:10.471Z,99.90
2017-10-22T00:29:38.044Z,99.90
2017-10-22T00:32:06.320Z,99.90
2017-10-22T00:34:33.875Z,99.90
2017-10-22T00:37:02.708Z,99.90
2017-10-22T00:39:30.755Z,99.90
2017-10-22T00:41:58.291Z,99.90
2017-10-22T00:44:25.800Z,99.90
2017-10-22T00:46:53.619Z,99.90
2017-10-22T00:49:22.808Z,99.90
2017-10-22T00:51:50.324Z,99.90
2017-10-22T00:54:17.853Z,99.90
2017-10-22T00:56:45.363Z,99.90
2017-10-22T00:59:12.866Z,99.90
2017-10-22T01:01:40.769Z,99.90
2017-10-22T01:04:08.276Z,99.90
2017-10-22T01:06:36.378Z,99.90
2017-10-22T01:09:03.950Z,99.90
2017-10-22T01:11:31.851Z,99.90
2017-10-22T01:13:59.365Z,99.90
2017-10-22T01:16:30.508Z,99.90
2017-10-22T01:18:58.121Z,99.90
2017-10-22T01:21:25.805Z,99.90
2017-10-22T01:23:54.078Z,99.90
2017-10-22T01:26:22.346Z,99.90
2017-10-22T01:28:51.379Z,99.90
2017-10-22T01:31:18.880Z,99.90
2017-10-22T01:33:46.408Z,99.90
2017-10-22T01:36:14.158Z,99.90
2017-10-22T01:38:41.715Z,99.90
2017-10-22T01:41:09.634Z,99.90
2017-10-22T01:43:37.141Z,99.90
2017-10-22T01:46:08.197Z,99.90
2017-10-22T01:48:35.705Z,99.90
2017-10-22T01:51:04.931Z,99.90
2017-10-22T01:53:32.523Z,99.90
2017-10-22T01:56:00.027Z,99.90
2017-10-22T01:58:27.544Z,99.90
2017-10-22T02:00:55.258Z,99.90
2017-10-22T02:03:23.392Z,99.90
2017-10-22T02:05:53.090Z,99.90
2017-10-22T02:08:20.642Z,99.90
2017-10-22T02:10:49.164Z,99.90
2017-10-22T02:13:16.712Z,99.90
2017-10-22T02:15:44.312Z,99.90
2017-10-22T02:18:13.499Z,99.90
2017-10-22T02:20:41.181Z,99.90
2017-10-22T02:23:08.714Z,99.90
2017-10-22T02:25:37.914Z,99.90
2017-10-22T02:28:05.463Z,99.90
2017-10-22T02:30:33.738Z,99.90
2017-10-22T02:33:07.384Z,99.90
2017-10-22T02:35:35.016Z,99.90
2017-10-22T02:38:03.863Z,99.90
2017-10-22T02:40:31.363Z,99.90
2017-10-22T02:42:59.662Z,99.90
2017-10-22T02:45:27.836Z,99.90
2017-10-22T02:47:55.443Z,99.90
2017-10-22T02:50:27.244Z,99.90
2017-10-22T02:52:54.765Z,99.90
2017-10-22T02:55:22.724Z,99.90
2017-10-22T02:57:50.261Z,99.90
2017-10-22T03:00:17.764Z,99.90
2017-10-22T03:02:50.679Z,99.90
2017-10-22T03:05:18.195Z,99.90
2017-10-22T03:07:46.010Z,99.90
2017-10-22T03:10:13.600Z,99.90
2017-10-22T03:12:42.029Z,99.90
2017-10-22T03:15:09.537Z,99.90
2017-10-22T03:17:40.034Z,99.90
2017-10-22T03:20:07.785Z,99.90
2017-10-22T03:22:35.311Z,99.90
2017-10-22T03:25:03.059Z,99.90
2017-10-22T03:27:31.499Z,99.90
2017-10-22T03:29:59.036Z,99.90
2017-10-22T03:32:26.588Z,99.90
2017-10-22T03:34:54.088Z,99.90
2017-10-22T03:37:21.627Z,99.90
2017-10-22T03:39:49.383Z,99.90
2017-10-22T03:42:17.061Z,99.90
2017-10-22T03:44:45.388Z,99.90
2017-10-22T03:47:12.931Z,99.90
2017-10-22T03:49:40.703Z,99.90
2017-10-22T03:52:08.258Z,99.90
2017-10-22T03:54:35.883Z,99.90
2017-10-22T03:57:05.177Z,99.90
2017-10-22T03:59:32.711Z,99.90
2017-10-22T04:02:01.003Z,99.90
2017-10-22T04:04:33.103Z,99.90
2017-10-22T04:07:00.615Z,99.90
2017-10-22T04:09:31.670Z,99.90
2017-10-22T04:11:59.763Z,99.90
2017-10-22T04:14:27.328Z,99.90
2017-10-22T04:16:54.875Z,99.90
2017-10-22T04:19:22.377Z,99.90
2017-10-22T04:21:50.260Z,99.90
2017-10-22T04:24:19.686Z,99.90
2017-10-22T04:26:47.192Z,99.90
2017-10-22T04:29:14.840Z,99.90
2017-10-22T04:31:42.854Z,99.90
2017-10-22T04:34:11.128Z,99.90
2017-10-22T04:36:38.663Z,99.90
2017-10-22T04:39:06.196Z,99.90
2017-10-22T04:41:33.731Z,99.90
2017-10-22T04:44:01.245Z,99.90
2017-10-22T04:46:28.770Z,99.90
2017-10-22T04:48:57.042Z,99.90
2017-10-22T04:51:24.584Z,99.90
2017-10-22T04:53:52.096Z,99.90
2017-10-22T04:56:19.641Z,99.90
2017-10-22T04:58:47.171Z,99.90
2017-10-22T05:01:14.696Z,99.90
2017-10-22T05:03:42.243Z,99.90
2017-10-22T05:06:11.489Z,99.90
2017-10-22T05:08:39.065Z,99.90
2017-10-22T05:11:06.607Z,99.90
2017-10-22T05:13:34.111Z,99.90
2017-10-22T05:16:03.131Z,99.90
2017-10-22T05:18:30.669Z,99.90
2017-10-22T05:20:58.218Z,99.90
2017-10-22T05:23:25.708Z,99.90
2017-10-22T05:25:54.975Z,99.90
2017-10-22T05:28:22.491Z,99.90
2017-10-22T05:30:50.312Z,99.90
2017-10-22T05:33:17.829Z,99.90
2017-10-22T05:35:45.321Z,99.90
2017-10-22T05:38:17.646Z,99.90
2017-10-22T05:40:45.174Z,99.90
2017-10-22T05:43:14.506Z,99.90
2017-10-22T05:45:42.031Z,99.90
2017-10-22T05:48:10.327Z,99.90
2017-10-22T05:50:43.064Z,99.90
2017-10-22T05:53:15.051Z,99.90
2017-10-22T05:55:43.319Z,99.90
2017-10-22T05:58:10.827Z,99.90
2017-10-22T06:00:38.696Z,99.90
2017-10-22T06:03:06.204Z,99.90
2017-10-22T06:05:38.065Z,99.90
2017-10-22T06:08:05.572Z,99.90
2017-10-22T06:10:33.107Z,99.90
2017-10-22T06:13:00.614Z,99.90
2017-10-22T06:15:28.150Z,99.90
2017-10-22T06:17:55.987Z,99.90
2017-10-22T06:20:28.379Z,99.90
2017-10-22T06:22:55.915Z,99.90
2017-10-22T06:25:24.216Z,99.90
2017-10-22T06:27:51.764Z,99.90
2017-10-22T06:30:19.271Z,99.90
2017-10-22T06:32:47.207Z,99.90
2017-10-22T06:35:15.393Z,99.90
2017-10-22T06:37:43.467Z,99.90
2017-10-22T06:40:11.024Z,99.90
2017-10-22T06:42:38.539Z,99.90
2017-10-22T06:45:06.035Z,99.90
2017-10-22T06:47:33.578Z,99.90
2017-10-22T06:50:01.103Z,99.90
2017-10-22T06:52:28.629Z,99.90
2017-10-22T06:54:56.164Z,99.90
2017-10-22T06:57:23.715Z,99.90
2017-10-22T06:59:52.296Z,99.90
2017-10-22T07:02:19.836Z,99.90
2017-10-22T07:04:48.100Z,99.90
2017-10-22T07:07:18.343Z,99.90
2017-10-22T07:09:46.529Z,99.90
2017-10-22T07:12:14.051Z,99.90
2017-10-22T07:14:41.616Z,99.90
2017-10-22T07:17:10.184Z,99.90
2017-10-22T07:19:38.195Z,99.90
2017-10-22T07:22:09.823Z,99.90
2017-10-22T07:24:37.324Z,99.90
2017-10-22T07:27:04.839Z,99.90
2017-10-22T07:29:33.152Z,99.90
2017-10-22T07:32:00.910Z,99.90
2017-10-22T07:34:28.799Z,99.90
2017-10-22T07:36:56.311Z,99.90
2017-10-22T07:39:23.857Z,99.90
2017-10-22T07:41:52.587Z,99.90
2017-10-22T07:44:20.092Z,99.90
2017-10-22T07:46:47.625Z,99.90
2017-10-22T07:49:15.259Z,99.90
2017-10-22T07:51:42.799Z,99.90
2017-10-22T07:54:11.079Z,99.90
2017-10-22T07:56:38.680Z,99.90
2017-10-22T07:59:06.244Z,99.90
2017-10-22T08:01:33.774Z,99.90
2017-10-22T08:04:01.473Z,99.90
2017-10-22T08:06:30.212Z,99.80
2017-10-22T08:08:58.504Z,98.80
2017-10-22T08:11:26.044Z,98.80
2017-10-22T08:13:53.932Z,99.10
2017-10-22T08:16:23.124Z,98.50
2017-10-22T08:18:50.623Z,98.40
2017-10-22T08:21:18.378Z,97.60
2017-10-22T08:23:45.879Z,96.90
2017-10-22T08:26:14.267Z,95.30
2017-10-22T08:28:41.776Z,95.30
2017-10-22T08:31:09.619Z,93.80
2017-10-22T08:33:37.162Z,93.20
2017-10-22T08:36:05.004Z,92.80
2017-10-22T08:38:36.682Z,92.70
2017-10-22T08:41:04.218Z,92.60
2017-10-22T08:43:32.530Z,91.40
2017-10-22T08:46:00.104Z,91.30
2017-10-22T08:48:27.627Z,88.20
2017-10-22T08:50:55.679Z,87.00
2017-10-22T08:53:23.377Z,87.50
2017-10-22T08:55:50.890Z,87.00
2017-10-22T08:58:20.123Z,86.40
2017-10-22T09:00:47.628Z,86.30
2017-10-22T09:03:15.239Z,85.00
2017-10-22T09:05:42.751Z,83.00
2017-10-22T09:08:17.851Z,82.30
2017-10-22T09:10:45.701Z,83.00
2017-10-22T09:13:13.272Z,82.40
2017-10-22T09:15:40.793Z,80.00
2017-10-22T09:18:08.308Z,80.50
2017-10-22T09:20:36.683Z,79.20
2017-10-22T09:23:04.533Z,79.10
2017-10-22T09:25:32.216Z,77.90
2017-10-22T09:27:59.728Z,77.10
2017-10-22T09:30:28.097Z,75.90
2017-10-22T09:32:56.403Z,76.50
2017-10-22T09:35:25.123Z,77.50
2017-10-22T09:37:52.629Z,76.80
2017-10-22T09:40:20.925Z,77.70
2017-10-22T09:42:48.662Z,76.90
2017-10-22T09:45:16.972Z,73.70
2017-10-22T09:47:44.536Z,73.70
2017-10-22T09:50:12.079Z,73.90
2017-10-22T09:52:39.595Z,73.30
2017-10-22T09:55:09.296Z,72.00
2017-10-22T09:57:36.892Z,71.90
2017-10-22T10:00:05.172Z,72.00
2017-10-22T10:02:33.444Z,72.50
2017-10-22T10:05:01.035Z,72.50
2017-10-22T10:07:28.555Z,69.80
2017-10-22T10:09:57.789Z,71.00
2017-10-22T10:12:25.741Z,71.00
2017-10-22T10:14:53.344Z,68.60
2017-10-22T10:17:22.611Z,69.30
2017-10-22T10:19:50.385Z,69.30
2017-10-22T10:22:17.940Z,68.80
2017-10-22T10:24:48.703Z,69.60
2017-10-22T10:27:16.812Z,68.40
2017-10-22T10:29:45.135Z,68.10
2017-10-22T10:32:12.877Z,68.10
2017-10-22T10:34:40.410Z,65.20
2017-10-22T10:37:08.724Z,64.60
2017-10-22T10:39:37.984Z,64.60
2017-10-22T10:42:06.333Z,63.40
2017-10-22T10:44:33.923Z,63.00
2017-10-22T10:47:02.688Z,64.70
2017-10-22T10:49:30.556Z,64.70
2017-10-22T10:51:58.120Z,64.10
2017-10-22T10:54:25.668Z,62.40
2017-10-22T10:56:53.179Z,62.50
2017-10-22T10:59:20.683Z,63.00
2017-10-22T11:01:48.221Z,63.20
2017-10-22T11:04:15.787Z,62.80
2017-10-22T11:06:43.504Z,63.90
2017-10-22T11:09:11.779Z,65.00
2017-10-22T11:11:43.616Z,65.10
2017-10-22T11:14:11.125Z,65.10
2017-10-22T11:16:39.450Z,64.20
2017-10-22T11:19:06.962Z,64.90
2017-10-22T11:21:34.521Z,65.40
2017-10-22T11:24:02.980Z,64.70
2017-10-22T11:26:30.531Z,62.90
2017-10-22T11:28:59.146Z,63.70
2017-10-22T11:31:26.647Z,63.60
2017-10-22T11:33:54.235Z,64.60
2017-10-22T11:36:21.750Z,65.20
2017-10-22T11:38:50.150Z,65.60
2017-10-22T11:41:18.048Z,65.10
2017-10-22T11:43:46.354Z,64.90
2017-10-22T11:46:13.921Z,64.90
2017-10-22T11:48:42.398Z,65.10
2017-10-22T11:51:09.905Z,65.10
2017-10-22T11:53:37.472Z,65.60
2017-10-22T11:56:05.764Z,65.60
2017-10-22T11:58:33.568Z,65.60
2017-10-22T12:01:01.893Z,65.40
2017-10-22T12:03:29.411Z,66.40
2017-10-22T12:05:56.931Z,66.10
2017-10-22T12:08:24.595Z,64.40
2017-10-22T12:10:52.369Z,64.90
2017-10-22T12:13:20.847Z,64.60
2017-10-22T12:15:49.224Z,65.00
2017-10-22T12:18:16.862Z,65.00
2017-10-22T12:20:44.423Z,63.40
2017-10-22T12:23:12.720Z,64.10
2017-10-22T12:25:40.254Z,64.00
2017-10-22T12:28:08.539Z,62.70
2017-10-22T12:30:36.116Z,62.70
2017-10-22T12:33:03.623Z,62.90
2017-10-22T12:35:31.932Z,59.80
2017-10-22T12:37:59.559Z,59.80
2017-10-22T12:40:27.069Z,60.50
2017-10-22T12:42:58.264Z,61.40
2017-10-22T12:45:25.757Z,60.20
2017-10-22T12:47:54.232Z,59.80
2017-10-22T12:50:21.764Z,59.50
2017-10-22T12:52:49.315Z,58.80
2017-10-22T12:55:16.904Z,59.60
2017-10-22T12:57:44.438Z,59.70
2017-10-22T13:00:11.995Z,59.80
2017-10-22T13:02:39.532Z,59.00
2017-10-22T13:05:07.960Z,59.10
2017-10-22T13:07:35.512Z,58.50
2017-10-22T13:10:03.016Z,57.60
2017-10-22T13:12:30.570Z,57.20
2017-10-22T13:14:58.122Z,57.30
2017-10-22T13:17:25.808Z,57.40
2017-10-22T13:19:53.315Z,58.20
2017-10-22T13:22:21.576Z,59.00
2017-10-22T13:24:49.880Z,57.40
2017-10-22T13:27:20.425Z,57.30
2017-10-22T13:29:47.931Z,73.70
2017-10-22T13:32:15.902Z,62.20
2017-10-22T13:34:43.448Z,64.80
2017-10-22T13:37:11.790Z,61.80
2017-10-22T13:39:39.313Z,61.80
2017-10-22T13:42:07.616Z,62.20
2017-10-22T13:44:36.072Z,60.80
2017-10-22T13:47:04.375Z,60.70
2017-10-22T13:49:31.911Z,60.60
2017-10-22T13:52:01.127Z,58.10
2017-10-22T13:54:28.671Z,58.00
2017-10-22T13:56:56.973Z,62.30
2017-10-22T13:59:29.423Z,61.40
2017-10-22T14:01:58.183Z,60.00
2017-10-22T14:04:26.491Z,65.20
2017-10-22T14:06:55.728Z,63.30
2017-10-22T14:09:23.245Z,63.20
2017-10-22T14:11:52.108Z,59.10
2017-10-22T14:14:23.287Z,58.90
2017-10-22T14:16:50.791Z,68.30
2017-10-22T14:19:18.354Z,65.90
2017-10-22T14:21:45.938Z,61.90
2017-10-22T14:24:13.458Z,65.00
2017-10-22T14:26:41.034Z,59.90
2017-10-22T14:29:09.458Z,61.10
2017-10-22T14:31:36.999Z,58.00
2017-10-22T14:34:05.083Z,59.30
2017-10-22T14:36:32.636Z,59.30
2017-10-22T14:39:00.922Z,59.60
2017-10-22T14:41:29.747Z,60.10
2017-10-22T14:43:58.964Z,60.20
2017-10-22T14:46:26.493Z,60.10
2017-10-22T14:48:54.054Z,59.80
2017-10-22T14:51:21.563Z,60.90
2017-10-22T14:53:49.148Z,60.00
2017-10-22T14:56:18.431Z,62.60
2017-10-22T14:58:46.722Z,62.30
2017-10-22T15:01:14.275Z,62.30
2017-10-22T15:03:43.483Z,63.20
2017-10-22T15:06:11.034Z,63.30
2017-10-22T15:08:39.341Z,67.10
2017-10-22T15:11:07.829Z,67.00
2017-10-22T15:13:35.326Z,70.40
2017-10-22T15:16:02.815Z,72.60
2017-10-22T15:18:30.382Z,72.20
2017-10-22T15:20:57.893Z,74.60
2017-10-22T15:23:25.410Z,73.30
2017-10-22T15:25:52.951Z,74.70
2017-10-22T15:28:22.190Z,75.50
2017-10-22T15:30:49.696Z,75.50
2017-10-22T15:33:17.232Z,74.20
2017-10-22T15:35:44.737Z,73.30
2017-10-22T15:38:12.271Z,73.90
2017-10-22T15:40:41.560Z,75.20
2017-10-22T15:43:10.763Z,76.00
2017-10-22T15:45:38.873Z,75.80
2017-10-22T15:48:06.425Z,76.70
2017-10-22T15:50:34.055Z,76.70
2017-10-22T15:53:02.319Z,77.00
2017-10-22T15:55:30.952Z,77.90
2017-10-22T15:57:58.631Z,77.90
2017-10-22T16:00:26.203Z,77.70
2017-10-22T16:02:54.663Z,78.30
2017-10-22T16:05:22.211Z,77.30
2017-10-22T16:07:49.723Z,78.90
2017-10-22T16:10:17.564Z,80.90
2017-10-22T16:12:45.105Z,85.00
2017-10-22T16:15:12.616Z,90.00
2017-10-22T16:17:44.707Z,92.90
2017-10-22T16:20:12.260Z,95.40
2017-10-22T16:22:40.539Z,98.70
2017-10-22T16:25:08.584Z,98.70
2017-10-22T16:27:36.893Z,98.60
2017-10-22T16:30:04.499Z,98.60
2017-10-22T16:32:31.998Z,99.70
2017-10-22T16:35:00.268Z,99.90
2017-10-22T16:37:28.024Z,99.90
2017-10-22T16:39:55.593Z,99.90
2017-10-22T16:42:23.861Z,99.90
2017-10-22T16:44:51.355Z,99.90
2017-10-22T16:47:21.887Z,99.90
2017-10-22T16:49:49.382Z,99.90
2017-10-22T16:52:17.640Z,99.90
2017-10-22T16:54:45.277Z,99.90
2017-10-22T16:57:12.805Z,99.90
2017-10-22T16:59:42.034Z,99.90
2017-10-22T17:02:12.987Z,99.90
2017-10-22T17:04:41.183Z,99.90
2017-10-22T17:07:08.755Z,99.90
2017-10-22T17:09:37.300Z,99.90
2017-10-22T17:12:05.042Z,99.90
2017-10-22T17:14:32.557Z,99.90
2017-10-22T17:17:03.335Z,99.90
2017-10-22T17:19:30.876Z,99.90
2017-10-22T17:21:59.150Z,99.40
2017-10-22T17:24:26.674Z,99.30
2017-10-22T17:26:54.231Z,99.10
2017-10-22T17:29:21.757Z,98.90
2017-10-22T17:31:53.300Z,98.70
2017-10-22T17:34:21.567Z,98.70
2017-10-22T17:36:49.106Z,98.90
2017-10-22T17:39:16.643Z,98.60
2017-10-22T17:41:44.197Z,98.70
2017-10-22T17:44:11.823Z,98.90
2017-10-22T17:46:39.557Z,98.90
2017-10-22T17:49:07.117Z,99.10
2017-10-22T17:51:35.391Z,99.20
2017-10-22T17:54:02.908Z,99.30
2017-10-22T17:56:30.600Z,99.40
2017-10-22T17:58:58.339Z,99.10
2017-10-22T18:01:26.387Z,99.30
2017-10-22T18:03:55.042Z,99.10
2017-10-22T18:06:23.194Z,99.10
2017-10-22T18:08:51.480Z,99.10
2017-10-22T18:11:19.316Z,99.10
2017-10-22T18:13:46.856Z,99.40
2017-10-22T18:16:14.448Z,99.30
2017-10-22T18:18:43.622Z,99.80
2017-10-22T18:21:15.486Z,99.10
2017-10-22T18:23:44.772Z,99.10
2017-10-22T18:26:12.419Z,99.10
2017-10-22T18:28:39.929Z,99.20
2017-10-22T18:31:07.497Z,99.30
2017-10-22T18:33:35.785Z,99.30
2017-10-22T18:36:03.580Z,99.30
2017-10-22T18:38:31.279Z,99.20
2017-10-22T18:40:58.940Z,99.60
2017-10-22T18:43:27.233Z,99.30
2017-10-22T18:45:55.803Z,99.30
2017-10-22T18:48:26.904Z,99.20
2017-10-22T18:50:54.458Z,99.20
2017-10-22T18:53:22.928Z,99.00
2017-10-22T18:55:50.500Z,99.20
2017-10-22T18:58:18.776Z,99.20
2017-10-22T19:00:46.272Z,99.10
2017-10-22T19:03:13.836Z,99.10
2017-10-22T19:05:41.349Z,99.40
2017-10-22T19:08:08.855Z,99.30
2017-10-22T19:10:36.915Z,99.20
2017-10-22T19:13:04.440Z,99.50
2017-10-22T19:15:31.986Z,99.20
2017-10-22T19:17:59.534Z,99.30
2017-10-22T19:20:28.601Z,99.70
2017-10-22T19:22:56.136Z,99.70
2017-10-22T19:25:23.684Z,99.90
2017-10-22T19:27:51.184Z,99.90
2017-10-22T19:30:20.412Z,99.90
2017-10-22T19:32:47.939Z,99.90
2017-10-22T19:35:15.532Z,99.90
2017-10-22T19:37:43.056Z,99.90
2017-10-22T19:40:10.887Z,99.90
2017-10-22T19:42:38.731Z,99.80
2017-10-22T19:45:06.252Z,99.60
2017-10-22T19:47:34.582Z,99.90
2017-10-22T19:50:02.228Z,99.80
2017-10-22T19:52:29.760Z,99.90
2017-10-22T19:54:58.986Z,99.90
2017-10-22T19:57:26.510Z,99.90
2017-10-22T19:59:54.872Z,99.90
2017-10-22T20:02:22.444Z,99.90
2017-10-22T20:04:49.947Z,99.90
2017-10-22T20:07:18.271Z,99.90
2017-10-22T20:09:45.802Z,99.90
2017-10-22T20:12:13.315Z,99.90
2017-10-22T20:14:40.855Z,99.90
2017-10-22T20:17:09.188Z,99.90
2017-10-22T20:19:41.265Z,99.90
2017-10-22T20:22:08.775Z,99.90
2017-10-22T20:24:38.940Z,99.90
2017-10-22T20:27:06.480Z,99.90
2017-10-22T20:29:34.011Z,99.90
2017-10-22T20:32:02.286Z,99.90
2017-10-22T20:34:37.034Z,99.90
2017-10-22T20:37:04.565Z,99.90
2017-10-22T20:39:33.487Z,99.90
2017-10-22T20:42:00.991Z,99.90
2017-10-22T20:44:28.588Z,99.90
2017-10-22T20:46:56.119Z,99.90
2017-10-22T20:49:23.652Z,99.90
2017-10-22T20:51:51.159Z,99.90
2017-10-22T20:54:19.552Z,99.90
2017-10-22T20:56:47.628Z,99.90
2017-10-22T20:59:15.119Z,99.90
2017-10-22T21:01:43.418Z,99.90
2017-10-22T21:04:11.413Z,99.90
2017-10-22T21:06:39.713Z,99.90
2017-10-22T21:09:08.172Z,99.90
2017-10-22T21:11:37.060Z,99.90
2017-10-22T21:14:04.591Z,99.90
2017-10-22T21:16:32.738Z,99.90
2017-10-22T21:19:00.760Z,99.90
2017-10-22T21:21:28.265Z,99.90
2017-10-22T21:23:55.810Z,99.90
2017-10-22T21:26:23.344Z,99.90
2017-10-22T21:28:52.133Z,99.90
2017-10-22T21:31:20.087Z,99.90
2017-10-22T21:33:48.348Z,99.90
2017-10-22T21:36:15.902Z,99.90
2017-10-22T21:38:43.875Z,99.90
2017-10-22T21:41:12.192Z,99.90
2017-10-22T21:43:39.683Z,99.90
2017-10-22T21:46:07.224Z,99.90
2017-10-22T21:48:35.512Z,99.90
2017-10-22T21:51:03.986Z,99.90
2017-10-22T21:53:31.507Z,99.90
2017-10-22T21:55:59.784Z,99.90
2017-10-22T21:58:29.068Z,99.90
2017-10-22T22:00:56.615Z,99.90
2017-10-22T22:03:24.130Z,99.90
2017-10-22T22:05:56.825Z,99.90
2017-10-22T22:08:24.403Z,99.90
2017-10-22T22:10:51.939Z,99.90
2017-10-22T22:13:20.338Z,99.90
2017-10-22T22:15:49.183Z,99.90
2017-10-22T22:18:16.732Z,99.90
2017-10-22T22:20:45.188Z,99.90
2017-10-22T22:23:17.099Z,99.90
2017-10-22T22:25:44.590Z,99.90
2017-10-22T22:28:12.148Z,99.90
2017-10-22T22:30:39.665Z,99.90
2017-10-22T22:33:08.122Z,99.90
2017-10-22T22:35:35.908Z,99.90
2017-10-22T22:38:03.415Z,99.90
2017-10-22T22:40:30.911Z,99.90
2017-10-22T22:42:59.220Z,99.90
2017-10-22T22:45:26.985Z,99.90
2017-10-22T22:47:54.557Z,99.90
2017-10-22T22:50:22.063Z,99.90
2017-10-22T22:52:53.963Z,99.90
2017-10-22T22:55:22.129Z,99.90
2017-10-22T22:57:49.674Z,99.90
2017-10-22T23:00:17.971Z,99.90
2017-10-22T23:02:45.500Z,99.90
2017-10-22T23:05:12.991Z,99.90
2017-10-22T23:07:44.318Z,99.90
2017-10-22T23:10:11.855Z,99.90
2017-10-22T23:12:40.155Z,99.90
2017-10-22T23:15:07.669Z,99.90
2017-10-22T23:17:36.120Z,99.90
2017-10-22T23:20:03.658Z,99.90
2017-10-22T23:22:31.164Z,99.90
2017-10-22T23:24:58.707Z,99.90
2017-10-22T23:27:27.003Z,99.90
2017-10-22T23:29:55.231Z,99.90
2017-10-22T23:32:22.771Z,99.90
2017-10-22T23:34:50.589Z,99.90
2017-10-22T23:37:18.173Z,99.90
2017-10-22T23:39:45.762Z,99.90
2017-10-22T23:42:13.526Z,99.90
2017-10-22T23:44:42.791Z,99.90
2017-10-22T23:47:10.294Z,99.90
2017-10-22T23:49:37.800Z,99.90
2017-10-22T23:52:05.370Z,99.90
2017-10-22T23:54:37.755Z,99.90
2017-10-22T23:57:05.244Z,99.90
2017-10-22T23:59:32.808Z,99.90
